Time;durP1;ratioP1;P1;durP2;ratioP2;P2;SDS_P1;SDS_P2;PMS_P1;PMS_P2;Temp;Humidity;BMP_temperature;BMP_pressure;BME280_temperature;BME280_humidity;BME280_pressure;Samples;Min_cycle;Max_cycle;Signal;HPM_P1;HPM_P2
2022/04/12 00:00:40;;;;;;;6.35;4.25;;;10.90;62.10;;;;;;5032132;28;20116;-67
2022/04/12 00:03:07;;;;;;;8.68;5.63;;;10.90;62.30;;;;;;5029341;28;20428;-68
2022/04/12 00:05:33;;;;;;;7.45;4.80;;;10.80;62.70;;;;;;5031839;28;20559;-68
2022/04/12 00:07:59;;;;;;;6.93;5.22;;;10.80;62.90;;;;;;5036968;28;20035;-68
2022/04/12 00:10:26;;;;;;;7.90;5.32;;;10.70;63.10;;;;;;5037622;28;20402;-68
2022/04/12 00:12:51;;;;;;;6.97;5.22;;;10.70;63.30;;;;;;5029201;28;20044;-67
2022/04/12 00:15:17;;;;;;;6.75;4.70;;;10.60;63.30;;;;;;5037075;28;20021;-67
2022/04/12 00:20:27;;;;;;;5.80;4.30;;;10.60;63.70;;;;;;5031708;28;20024;-68
2022/04/12 00:22:57;;;;;;;5.78;4.40;;;10.60;63.70;;;;;;5034374;28;20112;-67
2022/04/12 00:25:24;;;;;;;5.32;3.80;;;10.50;63.60;;;;;;5045643;28;20040;-68
2022/04/12 00:27:51;;;;;;;5.93;4.00;;;10.50;63.50;;;;;;5042705;28;20516;-67
2022/04/12 00:30:18;;;;;;;5.43;4.55;;;10.50;63.60;;;;;;5052117;28;20026;-67
2022/04/12 00:32:44;;;;;;;5.55;3.83;;;10.50;63.60;;;;;;5028575;28;20027;-68
2022/04/12 00:35:11;;;;;;;4.82;3.33;;;10.50;63.50;;;;;;5030599;28;20036;-67
2022/04/12 00:37:36;;;;;;;4.65;3.65;;;10.50;63.40;;;;;;5034255;28;20032;-67
2022/04/12 00:40:03;;;;;;;6.13;3.85;;;10.50;63.20;;;;;;5036922;28;20439;-67
2022/04/12 00:42:29;;;;;;;5.47;3.22;;;10.60;63.10;;;;;;5028662;28;20452;-68
2022/04/12 00:44:55;;;;;;;3.83;2.55;;;10.50;62.90;;;;;;5031253;28;20104;-67
2022/04/12 00:47:20;;;;;;;4.05;2.85;;;10.60;62.80;;;;;;5033818;28;20512;-67
2022/04/12 00:49:46;;;;;;;4.43;2.83;;;10.60;62.60;;;;;;5031138;28;20083;-67
2022/04/12 00:52:12;;;;;;;4.13;2.35;;;10.50;62.20;;;;;;5036620;28;20103;-68
2022/04/12 00:54:39;;;;;;;5.55;2.58;;;10.60;62.00;;;;;;5028697;28;20029;-67
2022/04/12 00:57:06;;;;;;;4.35;2.60;;;10.60;61.70;;;;;;5033665;28;20590;-67
2022/04/12 00:59:32;;;;;;;4.68;2.63;;;10.60;61.30;;;;;;5037617;28;20025;-67
2022/04/12 01:01:58;;;;;;;5.13;2.35;;;10.60;60.80;;;;;;5029642;28;20108;-68
2022/04/12 01:04:23;;;;;;;6.05;3.63;;;10.60;60.70;;;;;;5031091;28;20112;-68
2022/04/12 01:06:49;;;;;;;5.18;2.67;;;10.60;60.30;;;;;;5031159;28;20053;-67
2022/04/12 01:09:16;;;;;;;3.40;2.05;;;10.60;60.20;;;;;;5028507;28;20056;-68
2022/04/12 01:11:44;;;;;;;3.42;1.95;;;10.60;60.20;;;;;;5030941;28;20066;-67
2022/04/12 01:14:09;;;;;;;3.25;2.17;;;10.60;60.20;;;;;;5028771;28;20021;-67
2022/04/12 01:16:35;;;;;;;5.18;2.33;;;10.60;60.10;;;;;;5033546;28;20377;-67
2022/04/12 01:19:01;;;;;;;3.83;2.30;;;10.70;60.00;;;;;;5040559;28;20032;-67
2022/04/12 01:21:34;;;;;;;6.53;3.33;;;10.70;60.00;;;;;;5030746;28;20040;-67
2022/04/12 01:24:01;;;;;;;4.35;2.47;;;10.70;59.90;;;;;;5029467;28;20029;-67
2022/04/12 01:26:27;;;;;;;3.63;2.67;;;10.70;59.90;;;;;;5034766;28;20037;-67
2022/04/12 01:28:52;;;;;;;4.15;2.03;;;10.70;59.80;;;;;;5030808;28;20053;-67
2022/04/12 01:31:18;;;;;;;4.78;2.60;;;10.70;59.80;;;;;;5031971;28;20377;-67
2022/04/12 01:33:43;;;;;;;4.15;2.42;;;10.70;59.70;;;;;;5031933;28;20026;-67
2022/04/12 01:36:09;;;;;;;3.45;2.25;;;10.70;59.80;;;;;;5039567;28;20017;-67
2022/04/12 01:38:35;;;;;;;4.75;2.58;;;10.70;59.80;;;;;;5034768;28;20053;-68
2022/04/12 01:41:02;;;;;;;4.07;2.50;;;10.70;60.40;;;;;;5042738;28;20028;-67
2022/04/12 01:43:28;;;;;;;4.93;2.55;;;10.70;59.80;;;;;;5032233;28;20080;-67
2022/04/12 01:45:53;;;;;;;4.85;2.97;;;10.70;59.80;;;;;;5046982;28;20037;-67
2022/04/12 01:48:19;;;;;;;6.00;3.03;;;10.70;59.70;;;;;;5031680;28;20021;-67
2022/04/12 01:50:44;;;;;;;5.20;2.95;;;10.70;59.70;;;;;;5034410;28;20422;-67
2022/04/12 01:53:10;;;;;;;4.70;2.30;;;10.70;59.70;;;;;;5037344;28;20034;-67
2022/04/12 01:55:35;;;;;;;6.60;3.17;;;10.70;59.80;;;;;;5036982;28;20029;-67
2022/04/12 01:58:01;;;;;;;6.32;3.25;;;10.70;59.70;;;;;;5039879;28;20031;-67
2022/04/12 02:00:27;;;;;;;4.80;2.28;;;10.70;59.70;;;;;;5032161;28;20060;-67
2022/04/12 02:02:52;;;;;;;5.18;2.97;;;10.70;59.80;;;;;;5031573;28;20036;-68
2022/04/12 02:05:20;;;;;;;4.03;2.42;;;10.70;60.00;;;;;;5034174;28;20025;-67
2022/04/12 02:07:45;;;;;;;3.60;2.17;;;10.70;59.90;;;;;;5037014;28;20028;-67
2022/04/12 02:10:11;;;;;;;3.95;2.15;;;10.70;59.90;;;;;;5033828;28;20025;-67
2022/04/12 02:12:37;;;;;;;5.47;3.30;;;10.70;60.00;;;;;;5036528;28;20116;-67
2022/04/12 02:15:03;;;;;;;6.38;3.42;;;10.70;60.00;;;;;;5031250;28;20100;-67
2022/04/12 02:17:29;;;;;;;7.82;3.20;;;10.70;60.00;;;;;;5047042;28;20507;-67
2022/04/12 02:19:55;;;;;;;4.53;2.95;;;10.70;60.10;;;;;;5035846;28;20451;-67
2022/04/12 02:22:21;;;;;;;5.30;3.22;;;10.70;60.20;;;;;;5033708;28;20060;-67
2022/04/12 02:24:46;;;;;;;5.10;2.80;;;10.70;60.20;;;;;;5031456;28;20105;-67
2022/04/12 02:27:12;;;;;;;5.30;2.80;;;10.70;60.20;;;;;;5036100;28;20033;-67
2022/04/12 02:29:38;;;;;;;5.95;3.80;;;10.70;60.20;;;;;;5031347;28;20124;-67
2022/04/12 02:32:04;;;;;;;7.30;3.80;;;10.60;60.30;;;;;;5033804;28;20033;-67
2022/04/12 02:34:29;;;;;;;5.82;2.95;;;10.60;60.50;;;;;;5032869;28;20079;-67
2022/04/12 02:36:55;;;;;;;5.18;3.08;;;10.60;60.50;;;;;;5031002;28;20029;-67
2022/04/12 02:39:21;;;;;;;8.23;4.32;;;10.60;60.40;;;;;;5036596;28;20109;-67
2022/04/12 02:41:46;;;;;;;5.93;3.88;;;10.60;60.80;;;;;;5035531;28;20033;-67
2022/04/12 02:44:12;;;;;;;8.32;3.35;;;10.60;60.80;;;;;;5043139;28;20108;-67
2022/04/12 02:46:37;;;;;;;9.43;4.25;;;10.60;60.90;;;;;;5046882;28;20076;-67
2022/04/12 02:49:03;;;;;;;6.75;3.95;;;10.60;60.80;;;;;;5035441;28;20536;-67
2022/04/12 02:51:28;;;;;;;8.95;4.38;;;10.60;60.90;;;;;;5033272;28;20033;-67
2022/04/12 02:53:54;;;;;;;6.47;4.03;;;10.60;60.80;;;;;;5037524;28;20538;-67
2022/04/12 02:56:19;;;;;;;5.32;3.47;;;10.60;61.00;;;;;;5034594;28;20084;-67
2022/04/12 02:58:45;;;;;;;5.07;3.22;;;10.60;60.90;;;;;;5033304;28;20064;-67
2022/04/12 03:01:10;;;;;;;6.88;3.67;;;10.50;60.90;;;;;;5034287;28;20037;-68
2022/04/12 03:03:36;;;;;;;6.95;4.00;;;10.60;60.90;;;;;;5033322;28;20029;-67
2022/04/12 03:06:01;;;;;;;5.75;3.28;;;10.60;60.90;;;;;;5037036;28;20433;-67
2022/04/12 03:08:27;;;;;;;6.15;3.53;;;10.50;60.90;;;;;;5035736;28;20472;-67
2022/04/12 03:10:53;;;;;;;7.22;3.53;;;10.60;61.00;;;;;;5030155;28;20099;-67
2022/04/12 03:13:18;;;;;;;6.97;3.75;;;10.60;61.00;;;;;;5033096;28;20055;-67
2022/04/12 03:15:44;;;;;;;9.18;4.28;;;10.60;61.00;;;;;;5032893;28;20036;-67
2022/04/12 03:18:10;;;;;;;6.30;3.45;;;10.50;61.00;;;;;;5035829;28;20052;-67
2022/04/12 03:20:36;;;;;;;5.45;3.20;;;10.50;61.10;;;;;;5030008;28;20105;-67
2022/04/12 03:23:01;;;;;;;5.35;3.13;;;10.50;61.10;;;;;;5035389;28;20327;-67
2022/04/12 03:25:27;;;;;;;5.78;3.42;;;10.60;61.20;;;;;;5032629;28;20036;-67
2022/04/12 03:27:53;;;;;;;5.78;3.22;;;10.50;61.20;;;;;;5032764;28;20470;-68
2022/04/12 03:30:19;;;;;;;6.00;3.20;;;10.50;61.20;;;;;;5032701;28;20033;-67
2022/04/12 03:32:44;;;;;;;3.85;2.28;;;10.50;61.20;;;;;;5035517;28;20059;-68
2022/04/12 03:35:10;;;;;;;7.32;4.25;;;10.50;61.20;;;;;;5037256;28;20559;-67
2022/04/12 03:37:35;;;;;;;6.32;4.03;;;10.50;61.30;;;;;;5050814;28;20461;-68
2022/04/12 03:40:02;;;;;;;7.68;3.60;;;10.50;61.30;;;;;;5032978;28;20102;-68
2022/04/12 03:42:28;;;;;;;7.43;4.20;;;10.40;61.30;;;;;;5029626;28;20117;-67
2022/04/12 03:44:53;;;;;;;6.30;3.97;;;10.50;61.50;;;;;;5031016;28;20114;-67
2022/04/12 03:47:19;;;;;;;6.40;3.55;;;10.50;61.50;;;;;;5032245;28;20021;-67
2022/04/12 03:49:44;;;;;;;5.90;3.30;;;10.50;61.60;;;;;;5039374;28;20504;-67
2022/04/12 03:52:10;;;;;;;4.68;2.97;;;10.50;61.70;;;;;;5039725;28;20053;-67
2022/04/12 03:54:36;;;;;;;5.25;3.10;;;10.50;61.70;;;;;;5031533;28;20481;-67
2022/04/12 03:57:02;;;;;;;7.90;3.95;;;10.50;61.70;;;;;;5029640;28;20393;-67
2022/04/12 03:59:28;;;;;;;5.22;3.47;;;10.50;61.80;;;;;;5037821;28;20057;-67
2022/04/12 04:01:53;;;;;;;7.15;3.40;;;10.50;61.70;;;;;;5036969;28;20460;-67
2022/04/12 04:04:19;;;;;;;5.20;3.13;;;10.40;61.70;;;;;;5052846;28;20029;-67
2022/04/12 04:06:45;;;;;;;5.72;3.83;;;10.40;61.80;;;;;;5027863;28;20041;-67
2022/04/12 04:09:11;;;;;;;6.60;3.65;;;10.40;62.00;;;;;;5031835;28;20025;-67
2022/04/12 04:11:40;;;;;;;5.38;2.85;;;10.40;62.00;;;;;;5036190;28;20056;-67
2022/04/12 04:14:07;;;;;;;6.47;3.93;;;10.40;62.00;;;;;;5035207;28;20091;-67
2022/04/12 04:16:32;;;;;;;6.45;3.38;;;10.40;62.20;;;;;;5034462;28;20120;-67
2022/04/12 04:18:58;;;;;;;6.38;3.50;;;10.40;62.10;;;;;;5034434;28;20096;-67
2022/04/12 04:21:23;;;;;;;6.10;3.80;;;10.40;62.10;;;;;;5028684;28;20029;-66
2022/04/12 04:23:49;;;;;;;7.72;3.20;;;10.40;62.20;;;;;;5034811;28;20040;-67
2022/04/12 04:26:15;;;;;;;6.45;2.70;;;10.40;62.20;;;;;;5036501;28;20083;-67
2022/04/12 04:28:42;;;;;;;6.88;3.92;;;10.30;62.10;;;;;;5028835;28;20489;-67
2022/04/12 04:31:08;;;;;;;6.93;3.70;;;10.40;62.20;;;;;;5034046;28;20559;-68
2022/04/12 04:33:33;;;;;;;7.25;4.18;;;10.40;62.30;;;;;;5029966;28;20029;-67
2022/04/12 04:35:59;;;;;;;6.95;3.70;;;10.40;62.50;;;;;;5045059;28;20476;-67
2022/04/12 04:38:24;;;;;;;5.78;3.15;;;10.30;62.70;;;;;;5034173;28;20018;-67
2022/04/12 04:40:50;;;;;;;7.32;3.17;;;10.40;62.70;;;;;;5031372;28;20029;-67
2022/04/12 04:43:16;;;;;;;6.80;3.78;;;10.40;62.70;;;;;;5035529;28;20528;-67
2022/04/12 04:45:43;;;;;;;6.35;3.33;;;10.40;62.70;;;;;;5034991;28;20033;-67
2022/04/12 04:48:09;;;;;;;5.40;3.25;;;10.40;62.60;;;;;;5028629;28;20088;-68
2022/04/12 04:50:35;;;;;;;6.43;3.83;;;10.40;62.70;;;;;;5029907;28;20021;-67
2022/04/12 04:53:02;;;;;;;5.82;3.05;;;10.40;62.70;;;;;;5035460;28;20106;-67
2022/04/12 04:55:28;;;;;;;6.80;4.00;;;10.40;62.60;;;;;;5034420;28;20358;-67
2022/04/12 04:57:56;;;;;;;7.30;3.70;;;10.40;62.70;;;;;;5032601;28;20586;-67
2022/04/12 05:00:25;;;;;;;7.07;3.70;;;10.40;62.80;;;;;;5036029;28;20048;-67
2022/04/12 05:02:54;;;;;;;6.22;4.03;;;10.40;62.80;;;;;;5030930;28;20562;-67
2022/04/12 05:05:21;;;;;;;8.50;5.13;;;10.40;62.80;;;;;;5033545;28;20030;-67
2022/04/12 05:07:48;;;;;;;7.80;4.40;;;10.40;63.00;;;;;;5033657;28;20025;-67
2022/04/12 05:10:19;;;;;;;8.45;5.10;;;10.30;63.40;;;;;;5035977;28;20033;-67
2022/04/12 05:12:45;;;;;;;7.63;4.60;;;10.30;63.40;;;;;;5030906;28;20033;-67
2022/04/12 05:15:11;;;;;;;9.93;4.32;;;10.30;63.50;;;;;;5039079;28;20861;-67
2022/04/12 05:17:37;;;;;;;7.45;4.25;;;10.30;63.50;;;;;;5031070;28;20083;-67
2022/04/12 05:20:06;;;;;;;6.80;4.30;;;10.30;63.40;;;;;;5031531;28;20029;-67
2022/04/12 05:22:31;;;;;;;6.97;4.72;;;10.30;63.30;;;;;;5031253;28;20068;-69
2022/04/12 05:24:57;;;;;;;9.05;4.72;;;10.40;64.00;;;;;;5031905;28;20034;-67
2022/04/12 05:27:22;;;;;;;7.05;3.72;;;10.40;63.50;;;;;;5047457;28;20489;-67
2022/04/12 05:29:49;;;;;;;5.55;3.05;;;10.40;63.40;;;;;;5032090;28;20061;-67
2022/04/12 05:32:15;;;;;;;7.05;4.00;;;10.40;63.30;;;;;;5031775;28;20029;-67
2022/04/12 05:34:41;;;;;;;7.38;4.55;;;10.50;63.50;;;;;;5036161;28;20013;-67
2022/04/12 05:37:07;;;;;;;6.72;3.65;;;10.50;63.40;;;;;;5051853;28;20089;-67
2022/04/12 05:39:32;;;;;;;5.97;3.55;;;10.50;63.30;;;;;;5051711;28;20029;-67
2022/04/12 05:42:01;;;;;;;8.23;4.57;;;10.50;63.30;;;;;;5051865;28;20029;-68
2022/04/12 05:44:28;;;;;;;5.20;3.55;;;10.60;63.30;;;;;;5051543;28;20037;-67
2022/04/12 05:46:54;;;;;;;7.28;4.13;;;10.60;63.30;;;;;;5051682;28;20032;-68
2022/04/12 05:49:20;;;;;;;6.43;4.13;;;10.50;63.20;;;;;;5051427;28;20160;-68
2022/04/12 05:51:45;;;;;;;8.23;4.45;;;10.60;63.20;;;;;;5051409;28;20100;-67
2022/04/12 05:54:10;;;;;;;11.52;5.07;;;10.60;63.50;;;;;;5043017;28;20034;-67
2022/04/12 05:56:36;;;;;;;8.20;4.47;;;10.50;63.40;;;;;;5031848;28;20033;-67
2022/04/12 05:59:02;;;;;;;5.68;3.63;;;10.60;63.60;;;;;;5031741;28;20029;-67
2022/04/12 06:01:27;;;;;;;5.28;3.65;;;10.60;63.60;;;;;;5032015;28;20479;-67
2022/04/12 06:03:52;;;;;;;8.57;4.75;;;10.60;63.60;;;;;;5031012;28;20032;-67
2022/04/12 06:06:18;;;;;;;10.65;4.60;;;10.60;63.60;;;;;;5047941;28;20021;-67
2022/04/12 06:08:44;;;;;;;7.35;3.97;;;10.60;63.50;;;;;;5049149;28;20060;-67
2022/04/12 06:11:09;;;;;;;6.07;3.80;;;10.60;63.50;;;;;;5048825;28;20423;-67
2022/04/12 06:13:35;;;;;;;6.60;4.03;;;10.60;63.50;;;;;;5051619;28;20033;-67
2022/04/12 06:16:00;;;;;;;8.45;4.20;;;10.70;63.60;;;;;;5050367;28;20096;-67
2022/04/12 06:18:26;;;;;;;7.05;4.38;;;10.70;63.50;;;;;;5054976;28;20029;-67
2022/04/12 06:20:51;;;;;;;10.02;5.47;;;10.70;63.60;;;;;;5053981;28;20473;-67
2022/04/12 06:23:17;;;;;;;6.95;4.45;;;10.80;63.60;;;;;;5053671;28;20079;-67
2022/04/12 06:25:43;;;;;;;7.55;4.18;;;10.80;63.80;;;;;;5055153;28;20021;-68
2022/04/12 06:28:09;;;;;;;8.48;4.93;;;10.80;63.80;;;;;;5054973;28;20469;-67
2022/04/12 06:30:35;;;;;;;11.40;5.93;;;10.80;63.80;;;;;;5054219;28;20033;-68
2022/04/12 06:33:00;;;;;;;8.68;4.80;;;10.80;64.00;;;;;;5050258;28;20025;-67
2022/04/12 06:35:26;;;;;;;9.07;5.70;;;10.80;63.70;;;;;;5053135;28;20075;-68
2022/04/12 06:37:53;;;;;;;8.00;5.63;;;10.80;63.80;;;;;;5053322;28;20040;-69
2022/04/12 06:40:20;;;;;;;8.95;5.40;;;10.80;63.70;;;;;;5050029;28;20013;-67
2022/04/12 06:42:47;;;;;;;11.35;5.20;;;10.80;63.90;;;;;;5053263;28;20029;-67
2022/04/12 06:45:12;;;;;;;8.40;4.93;;;10.80;63.90;;;;;;5052978;28;20033;-71
2022/04/12 06:47:41;;;;;;;6.85;4.47;;;10.90;64.10;;;;;;5053476;28;20090;-67
2022/04/12 06:50:09;;;;;;;7.30;5.10;;;10.90;64.10;;;;;;5054805;28;20035;-66
2022/04/12 06:52:35;;;;;;;7.70;4.32;;;10.90;63.90;;;;;;5054145;28;20041;-67
2022/04/12 06:55:00;;;;;;;7.68;5.05;;;11.00;64.10;;;;;;5054300;28;20044;-66
2022/04/12 06:57:34;;;;;;;7.88;5.10;;;11.10;64.00;;;;;;5054297;28;20017;-66
2022/04/12 07:00:00;;;;;;;9.40;5.57;;;11.10;64.10;;;;;;5054282;28;20074;-66
2022/04/12 07:02:26;;;;;;;8.00;5.43;;;11.10;63.90;;;;;;5054097;28;20037;-66
2022/04/12 07:04:51;;;;;;;10.18;5.13;;;11.10;63.70;;;;;;5052690;28;20460;-66
2022/04/12 07:07:16;;;;;;;10.07;5.90;;;11.20;63.70;;;;;;5054013;28;20112;-66
2022/04/12 07:09:42;;;;;;;9.93;5.40;;;11.20;64.20;;;;;;5053628;28;20051;-66
2022/04/12 07:12:08;;;;;;;7.75;5.20;;;11.20;64.30;;;;;;5053918;28;20032;-66
2022/04/12 07:14:34;;;;;;;8.23;5.22;;;11.20;64.40;;;;;;5053814;28;20569;-66
2022/04/12 07:16:59;;;;;;;9.65;5.43;;;11.20;64.20;;;;;;5053993;28;20057;-66
2022/04/12 07:19:25;;;;;;;8.98;5.05;;;11.30;64.30;;;;;;5053855;28;20021;-66
2022/04/12 07:21:52;;;;;;;8.00;5.80;;;11.40;64.80;;;;;;5053827;28;20052;-66
2022/04/12 07:24:18;;;;;;;7.78;5.25;;;11.50;65.10;;;;;;5053765;28;20024;-66
2022/04/12 07:26:44;;;;;;;9.13;5.35;;;11.50;64.60;;;;;;5048975;28;20099;-67
2022/04/12 07:29:09;;;;;;;9.80;5.70;;;11.60;64.60;;;;;;5048289;28;20039;-67
2022/04/12 07:31:35;;;;;;;9.45;5.05;;;11.60;64.50;;;;;;5052899;28;20063;-67
2022/04/12 07:34:01;;;;;;;9.13;5.60;;;11.70;64.10;;;;;;5053689;28;20079;-67
2022/04/12 07:36:26;;;;;;;9.15;5.47;;;11.80;64.30;;;;;;5053575;28;20079;-67
2022/04/12 07:38:52;;;;;;;6.68;4.75;;;11.90;65.00;;;;;;5053099;28;20029;-67
2022/04/12 07:41:18;;;;;;;8.30;5.40;;;11.90;64.70;;;;;;5053299;28;20037;-67
2022/04/12 07:43:45;;;;;;;8.90;5.80;;;12.00;64.10;;;;;;5053467;28;20025;-66
2022/04/12 07:46:12;;;;;;;9.38;5.85;;;12.00;64.00;;;;;;5053275;28;20044;-67
2022/04/12 07:48:39;;;;;;;10.40;5.93;;;12.10;64.60;;;;;;5053461;28;20021;-66
2022/04/12 07:51:04;;;;;;;7.95;5.20;;;12.10;65.00;;;;;;5051979;28;20132;-66
2022/04/12 07:53:30;;;;;;;7.32;5.25;;;12.20;64.70;;;;;;5052681;28;20563;-67
2022/04/12 07:55:55;;;;;;;8.10;5.40;;;12.30;64.90;;;;;;5052893;28;20025;-67
2022/04/12 07:58:21;;;;;;;9.30;5.82;;;12.40;65.40;;;;;;5053123;28;20032;-67
2022/04/12 08:00:46;;;;;;;7.25;5.32;;;12.50;64.60;;;;;;5052913;28;20385;-66
2022/04/12 08:03:13;;;;;;;11.32;6.22;;;12.50;65.20;;;;;;5052826;28;20086;-67
2022/04/12 08:05:38;;;;;;;9.65;5.88;;;12.60;64.50;;;;;;5053094;28;20388;-66
2022/04/12 08:08:05;;;;;;;9.15;5.90;;;12.70;64.60;;;;;;5053077;28;20495;-66
2022/04/12 08:10:31;;;;;;;8.18;5.07;;;12.80;64.90;;;;;;5051766;28;20102;-66
2022/04/12 08:12:57;;;;;;;7.20;4.93;;;12.90;64.60;;;;;;5052484;28;20056;-66
2022/04/12 08:15:23;;;;;;;7.70;5.50;;;12.90;64.90;;;;;;5052441;28;20032;-66
2022/04/12 08:17:49;;;;;;;6.50;5.03;;;13.10;64.10;;;;;;5052486;28;20029;-66
2022/04/12 08:20:15;;;;;;;9.20;5.95;;;13.20;65.10;;;;;;5052902;28;20036;-67
2022/04/12 08:22:42;;;;;;;7.95;5.68;;;13.30;65.20;;;;;;5052359;28;20412;-66
2022/04/12 08:25:09;;;;;;;7.70;5.75;;;13.40;64.10;;;;;;5051356;28;20491;-66
2022/04/12 08:27:35;;;;;;;11.05;5.35;;;13.40;63.90;;;;;;5050130;28;20029;-67
2022/04/12 08:30:02;;;;;;;8.13;5.25;;;13.50;64.00;;;;;;5052604;28;20357;-66
2022/04/12 08:32:29;;;;;;;7.88;4.95;;;13.60;63.50;;;;;;5052507;28;20584;-67
2022/04/12 08:34:55;;;;;;;8.50;5.65;;;13.70;63.90;;;;;;5051193;28;20416;-66
2022/04/12 08:37:21;;;;;;;7.65;5.25;;;13.80;64.60;;;;;;5051253;28;20028;-66
2022/04/12 08:39:47;;;;;;;9.50;4.88;;;13.90;63.40;;;;;;5051079;28;20548;-67
2022/04/12 08:42:13;;;;;;;8.85;5.35;;;13.90;62.80;;;;;;5052029;28;20127;-67
2022/04/12 08:44:42;;;;;;;7.93;5.10;;;14.00;63.80;;;;;;5052493;28;20476;-67
2022/04/12 08:47:08;;;;;;;6.47;4.50;;;14.10;63.00;;;;;;5052306;28;20032;-66
2022/04/12 08:49:35;;;;;;;10.38;5.22;;;14.20;64.20;;;;;;5052275;28;20043;-66
2022/04/12 08:52:02;;;;;;;7.90;4.32;;;14.40;63.80;;;;;;5051558;28;20029;-66
2022/04/12 08:54:28;;;;;;;6.78;4.25;;;14.50;63.90;;;;;;5052198;28;20036;-66
2022/04/12 08:56:54;;;;;;;7.47;4.50;;;14.60;62.00;;;;;;5050691;28;20024;-66
2022/04/12 08:59:20;;;;;;;6.53;4.53;;;14.70;61.60;;;;;;5046633;28;20021;-67
2022/04/12 09:01:49;;;;;;;7.30;4.57;;;14.70;61.90;;;;;;5046496;28;20031;-66
2022/04/12 09:04:15;;;;;;;8.77;4.63;;;14.70;61.70;;;;;;5047672;28;20028;-67
2022/04/12 09:06:51;;;;;;;8.93;5.00;;;14.80;61.50;;;;;;5051047;28;20025;-67
2022/04/12 09:09:21;;;;;;;7.18;4.75;;;14.90;61.00;;;;;;5051899;28;20040;-66
2022/04/12 09:11:57;;;;;;;5.95;4.45;;;15.00;62.10;;;;;;5052028;28;20025;-67
2022/04/12 09:14:23;;;;;;;5.97;4.50;;;15.10;61.00;;;;;;5052026;28;20044;-67
2022/04/12 09:16:51;;;;;;;7.05;4.43;;;15.10;62.70;;;;;;5052095;28;20013;-67
2022/04/12 09:19:38;;;;;;;6.72;4.65;;;15.20;62.00;;;;;;5051921;28;20024;-67
2022/04/12 09:22:10;;;;;;;8.02;5.00;;;15.40;59.50;;;;;;5051695;28;20045;-66
2022/04/12 09:24:37;;;;;;;6.70;5.07;;;15.50;62.20;;;;;;5051956;28;20028;-67
2022/04/12 09:27:03;;;;;;;9.13;5.28;;;15.50;61.60;;;;;;5051902;28;20025;-67
2022/04/12 09:29:30;;;;;;;6.65;4.65;;;15.60;60.50;;;;;;5050516;28;20429;-67
2022/04/12 09:31:56;;;;;;;7.30;5.05;;;15.70;60.60;;;;;;5050815;28;20029;-67
2022/04/12 09:34:23;;;;;;;7.60;4.88;;;15.70;60.30;;;;;;5044397;28;20484;-67
2022/04/12 09:36:49;;;;;;;6.32;4.82;;;15.90;60.70;;;;;;5050481;28;20087;-67
2022/04/12 09:39:18;;;;;;;7.22;5.32;;;16.00;60.40;;;;;;5041751;28;20423;-67
2022/04/12 09:41:47;;;;;;;5.60;4.00;;;16.10;60.30;;;;;;5047753;28;20033;-67
2022/04/12 09:44:17;;;;;;;7.22;4.93;;;16.20;59.90;;;;;;5050198;28;20063;-68
2022/04/12 09:46:43;;;;;;;7.45;4.38;;;16.30;59.50;;;;;;5047361;28;20040;-67
2022/04/12 09:49:11;;;;;;;7.05;4.57;;;16.40;60.10;;;;;;5045183;28;20381;-67
2022/04/12 09:51:37;;;;;;;9.15;5.03;;;16.50;59.40;;;;;;5047332;28;20135;-67
2022/04/12 09:54:07;;;;;;;6.03;4.30;;;16.60;58.90;;;;;;5051110;28;20025;-67
2022/04/12 09:56:34;;;;;;;8.07;4.55;;;16.60;59.90;;;;;;5048617;28;20029;-67
2022/04/12 09:59:08;;;;;;;7.70;4.43;;;16.80;58.60;;;;;;5048703;28;20023;-67
2022/04/12 10:01:39;;;;;;;9.63;4.65;;;16.90;58.80;;;;;;5048139;28;20823;-67
2022/04/12 10:04:08;;;;;;;7.43;4.30;;;17.00;59.10;;;;;;5050936;28;20033;-67
2022/04/12 10:06:39;;;;;;;10.18;5.30;;;17.20;58.90;;;;;;5054150;28;21109;-67
2022/04/12 10:09:07;;;;;;;9.45;4.75;;;17.40;57.30;;;;;;5044943;28;20472;-67
2022/04/12 10:11:33;;;;;;;7.15;3.15;;;17.40;56.60;;;;;;5047223;28;20497;-67
2022/04/12 10:14:01;;;;;;;6.45;3.95;;;17.50;58.70;;;;;;5054547;28;20029;-67
2022/04/12 10:16:27;;;;;;;5.22;3.60;;;17.70;56.90;;;;;;5055286;28;20101;-67
2022/04/12 10:18:54;;;;;;;8.82;5.00;;;17.90;57.70;;;;;;5053950;28;20515;-67
2022/04/12 10:21:22;;;;;;;6.28;3.00;;;18.00;57.10;;;;;;5054885;28;20021;-65
2022/04/12 10:23:51;;;;;;;7.65;3.75;;;18.10;56.80;;;;;;5051602;28;20037;-67
2022/04/12 10:26:19;;;;;;;;;;;18.30;55.20;;;;;;5055502;28;20039;-67
2022/04/12 10:28:44;;;;;;;6.65;3.85;;;18.40;54.70;;;;;;5054962;28;19964;-66
2022/04/12 10:31:13;;;;;;;6.13;3.83;;;18.50;54.80;;;;;;5054394;28;20029;-67
2022/04/12 10:33:38;;;;;;;4.15;2.80;;;18.50;54.90;;;;;;5054689;28;20021;-67
2022/04/12 10:36:06;;;;;;;7.00;3.65;;;18.70;54.70;;;;;;5054011;28;20484;-67
2022/04/12 10:38:43;;;;;;;6.80;3.58;;;18.90;54.60;;;;;;5053625;28;20546;-67
2022/04/12 10:41:16;;;;;;;5.88;4.00;;;19.10;53.30;;;;;;5054615;28;20029;-67
2022/04/12 10:43:42;;;;;;;7.90;4.60;;;19.20;52.60;;;;;;5054062;28;20017;-67
2022/04/12 10:46:13;;;;;;;6.20;4.22;;;19.30;53.60;;;;;;5053101;28;20025;-67
2022/04/12 10:48:39;;;;;;;7.30;4.35;;;19.50;53.50;;;;;;5054827;28;20017;-67
2022/04/12 10:51:06;;;;;;;7.95;3.42;;;19.70;52.70;;;;;;5053111;28;20020;-67
2022/04/12 10:53:37;;;;;;;9.93;5.15;;;19.90;52.70;;;;;;5054218;28;20021;-67
2022/04/12 10:56:15;;;;;;;6.15;3.28;;;20.10;50.90;;;;;;5048470;28;20393;-67
2022/04/12 10:58:41;;;;;;;7.03;2.85;;;20.20;51.40;;;;;;5044075;28;20029;-67
2022/04/12 11:01:12;;;;;;;3.85;2.08;;;20.30;50.70;;;;;;5045292;28;20013;-67
2022/04/12 11:03:40;;;;;;;5.57;2.63;;;20.70;51.20;;;;;;5039978;28;20028;-67
2022/04/12 11:06:13;;;;;;;4.47;2.30;;;21.60;50.90;;;;;;5051081;28;20060;-67
2022/04/12 11:08:41;;;;;;;6.82;3.30;;;22.80;49.60;;;;;;5052636;28;20075;-67
2022/04/12 11:11:09;;;;;;;6.43;3.78;;;22.80;46.20;;;;;;5045717;28;20111;-67
2022/04/12 11:13:35;;;;;;;4.20;3.10;;;22.30;46.40;;;;;;5038576;28;20381;-68
2022/04/12 11:16:06;;;;;;;8.27;3.83;;;21.90;48.80;;;;;;5052704;28;20026;-67
2022/04/12 11:18:52;;;;;;;6.75;4.32;;;21.80;48.00;;;;;;5053911;28;20525;-67
2022/04/12 11:21:21;;;;;;;6.53;3.70;;;21.70;48.00;;;;;;5044363;28;20054;-66
2022/04/12 11:23:54;;;;;;;7.03;3.60;;;21.90;47.60;;;;;;5045233;28;20032;-68
2022/04/12 11:26:41;;;;;;;6.15;4.20;;;22.30;48.20;;;;;;5048844;28;20061;-67
2022/04/12 11:29:17;;;;;;;10.30;5.60;;;22.70;46.30;;;;;;5046460;28;20029;-67
2022/04/12 11:31:50;;;;;;;9.68;4.90;;;22.30;47.30;;;;;;5046917;28;20450;-67
2022/04/12 11:34:16;;;;;;;8.80;5.10;;;22.00;48.20;;;;;;5050955;28;20130;-67
2022/04/12 11:36:50;;;;;;;7.38;4.30;;;22.20;47.00;;;;;;5053369;28;20075;-67
2022/04/12 11:39:20;;;;;;;8.07;3.40;;;22.30;47.20;;;;;;5053390;28;20027;-67
2022/04/12 11:41:46;;;;;;;7.03;4.00;;;22.70;47.50;;;;;;5052134;28;20051;-67
2022/04/12 11:44:12;;;;;;;8.88;4.65;;;23.10;46.60;;;;;;5049900;28;20032;-67
2022/04/12 11:46:38;;;;;;;5.47;3.50;;;23.40;45.80;;;;;;5048732;28;20388;-67
2022/04/12 11:49:05;;;;;;;5.32;3.03;;;23.40;44.90;;;;;;5049799;28;20037;-67
2022/04/12 11:51:35;;;;;;;5.78;3.00;;;23.60;45.80;;;;;;5053220;28;20473;-67
2022/04/12 11:54:01;;;;;;;6.30;2.92;;;24.20;45.10;;;;;;5052766;28;20036;-67
2022/04/12 11:56:28;;;;;;;9.45;4.07;;;24.90;44.10;;;;;;5053246;28;20025;-67
2022/04/12 11:58:53;;;;;;;4.07;2.47;;;25.30;42.20;;;;;;5053129;28;20056;-67
2022/04/12 12:01:31;;;;;;;7.75;4.22;;;25.40;42.90;;;;;;5052712;28;20057;-67
2022/04/12 12:04:07;;;;;;;7.35;4.13;;;25.40;41.60;;;;;;5052674;28;20384;-67
2022/04/12 12:06:33;;;;;;;6.50;4.00;;;24.20;41.70;;;;;;5052596;28;20071;-67
2022/04/12 12:08:58;;;;;;;6.60;3.50;;;23.10;44.30;;;;;;5053554;28;20071;-68
2022/04/12 12:11:24;;;;;;;8.70;4.32;;;22.40;46.20;;;;;;5053129;28;20032;-67
2022/04/12 12:14:11;;;;;;;7.13;3.58;;;22.20;47.00;;;;;;5050482;28;20043;-67
2022/04/12 12:16:36;;;;;;;6.65;3.97;;;22.60;47.10;;;;;;5052311;28;20025;-67
2022/04/12 12:19:02;;;;;;;9.10;4.78;;;22.90;45.30;;;;;;5052399;28;20021;-67
2022/04/12 12:21:31;;;;;;;8.93;4.65;;;22.80;45.40;;;;;;5052406;28;20029;-67
2022/04/12 12:23:56;;;;;;;5.28;3.33;;;22.70;45.10;;;;;;5052767;28;20400;-67
2022/04/12 12:26:29;;;;;;;7.38;3.58;;;22.60;45.60;;;;;;5052348;28;20048;-67
2022/04/12 12:28:58;;;;;;;5.15;3.25;;;22.60;45.70;;;;;;5052282;28;20532;-67
2022/04/12 12:31:25;;;;;;;8.13;3.85;;;23.00;44.70;;;;;;5051854;28;20044;-66
2022/04/12 12:33:50;;;;;;;7.15;3.50;;;23.00;44.80;;;;;;5052371;28;20029;-66
2022/04/12 12:36:24;;;;;;;7.90;3.47;;;22.80;45.60;;;;;;5052186;28;20388;-67
2022/04/12 12:38:51;;;;;;;5.50;3.15;;;22.80;46.10;;;;;;5052717;28;20060;-67
2022/04/12 12:41:31;;;;;;;7.18;3.13;;;23.10;45.40;;;;;;5052410;28;20470;-66
2022/04/12 12:43:58;;;;;;;7.60;3.22;;;23.00;45.70;;;;;;5047335;28;20020;-67
2022/04/12 12:46:28;;;;;;;5.05;2.92;;;22.80;45.20;;;;;;5051097;28;20083;-66